createdAt,value
2017-10-18T00:02:15.548Z,88.67
2017-10-18T00:04:43.005Z,88.26
2017-10-18T00:07:10.525Z,88.43
2017-10-18T00:09:37.976Z,89.21
2017-10-18T00:12:05.452Z,89.48
2017-10-18T00:14:32.916Z,90.95
2017-10-18T00:17:00.400Z,93.04
2017-10-18T00:19:27.879Z,93.54
2017-10-18T00:21:55.442Z,92.89
2017-10-18T00:24:22.886Z,92.25
2017-10-18T00:26:50.365Z,92.41
2017-10-18T00:29:17.821Z,93.39
2017-10-18T00:31:45.291Z,93.00
2017-10-18T00:34:12.768Z,92.17
2017-10-18T00:36:40.300Z,92.29
2017-10-18T00:39:07.850Z,92.88
2017-10-18T00:41:35.328Z,92.77
2017-10-18T00:44:02.858Z,92.49
2017-10-18T00:46:30.427Z,91.75
2017-10-18T00:48:57.884Z,91.58
2017-10-18T00:51:25.355Z,93.44
2017-10-18T00:53:52.824Z,94.27
2017-10-18T00:56:20.340Z,95.01
2017-10-18T00:58:47.812Z,95.42
2017-10-18T01:01:15.280Z,95.31
2017-10-18T01:03:42.740Z,95.05
2017-10-18T01:06:10.284Z,95.46
2017-10-18T01:08:37.743Z,95.09
2017-10-18T01:11:05.308Z,95.29
2017-10-18T01:13:32.758Z,95.06
2017-10-18T01:16:00.204Z,95.24
2017-10-18T01:18:27.699Z,95.10
2017-10-18T01:20:55.227Z,94.78
2017-10-18T01:23:22.699Z,94.72
2017-10-18T01:25:50.145Z,95.02
2017-10-18T01:28:17.609Z,94.68
2017-10-18T01:30:45.071Z,94.60
2017-10-18T01:33:12.552Z,94.62
2017-10-18T01:35:39.998Z,94.61
2017-10-18T01:38:07.475Z,94.27
2017-10-18T01:40:34.938Z,94.39
2017-10-18T01:43:02.432Z,93.93
2017-10-18T01:45:30.002Z,93.49
2017-10-18T01:47:57.470Z,94.24
2017-10-18T01:50:24.936Z,94.66
2017-10-18T01:52:52.411Z,94.64
2017-10-18T01:55:19.926Z,94.30
2017-10-18T01:57:47.413Z,95.81
2017-10-18T02:00:14.931Z,95.99
2017-10-18T02:02:42.515Z,95.75
2017-10-18T02:05:09.963Z,95.23
2017-10-18T02:07:37.535Z,95.54
2017-10-18T02:10:05.077Z,95.09
2017-10-18T02:12:32.541Z,94.94
2017-10-18T02:14:59.999Z,94.79
2017-10-18T02:17:27.548Z,94.73
2017-10-18T02:19:55.016Z,95.51
2017-10-18T02:22:22.560Z,95.63
2017-10-18T02:24:50.006Z,96.61
2017-10-18T02:27:17.500Z,96.02
2017-10-18T02:29:44.958Z,96.37
2017-10-18T02:32:12.478Z,96.34
2017-10-18T02:34:39.949Z,96.07
2017-10-18T02:37:07.452Z,95.87
2017-10-18T02:39:34.909Z,95.79
2017-10-18T02:42:02.387Z,96.65
2017-10-18T02:44:29.853Z,96.69
2017-10-18T02:46:57.331Z,96.31
2017-10-18T02:49:24.808Z,96.36
2017-10-18T02:51:52.254Z,95.98
2017-10-18T02:54:19.734Z,96.68
2017-10-18T02:56:47.208Z,96.78
2017-10-18T02:59:14.680Z,96.70
2017-10-18T03:01:42.147Z,96.83
2017-10-18T03:04:09.738Z,97.16
2017-10-18T03:06:37.182Z,97.03
2017-10-18T03:09:04.661Z,96.83
2017-10-18T03:11:32.132Z,97.55
2017-10-18T03:13:59.607Z,97.38
2017-10-18T03:16:27.055Z,96.91
2017-10-18T03:18:54.528Z,96.92
2017-10-18T03:21:21.990Z,96.91
2017-10-18T03:23:49.456Z,96.69
2017-10-18T03:26:16.915Z,96.63
2017-10-18T03:28:44.382Z,96.14
2017-10-18T03:31:11.857Z,96.33
2017-10-18T03:33:39.336Z,96.71
2017-10-18T03:36:06.782Z,96.90
2017-10-18T03:38:34.251Z,97.36
2017-10-18T03:41:02.264Z,97.19
2017-10-18T03:43:29.747Z,96.85
2017-10-18T03:45:57.213Z,97.12
2017-10-18T03:48:24.686Z,95.59
2017-10-18T03:50:52.131Z,96.16
2017-10-18T03:53:19.622Z,96.03
2017-10-18T03:55:47.130Z,95.73
2017-10-18T03:58:14.692Z,96.60
2017-10-18T04:00:42.179Z,96.09
2017-10-18T04:03:09.709Z,95.95
2017-10-18T04:05:37.191Z,95.66
2017-10-18T04:08:04.637Z,95.78
2017-10-18T04:10:32.175Z,96.73
2017-10-18T04:12:59.632Z,96.59
2017-10-18T04:15:27.107Z,96.53
2017-10-18T04:17:54.554Z,96.45
2017-10-18T04:20:22.113Z,96.95
2017-10-18T04:22:49.662Z,96.82
2017-10-18T04:25:17.135Z,96.46
2017-10-18T04:27:44.598Z,96.31
2017-10-18T04:30:12.071Z,95.79
2017-10-18T04:32:39.536Z,95.28
2017-10-18T04:35:07.023Z,95.97
2017-10-18T04:37:34.483Z,96.30
2017-10-18T04:40:01.964Z,96.10
2017-10-18T04:42:29.413Z,95.82
2017-10-18T04:44:56.890Z,96.20
2017-10-18T04:47:24.342Z,95.51
2017-10-18T04:49:51.809Z,95.65
2017-10-18T04:52:19.263Z,96.43
2017-10-18T04:54:46.739Z,96.60
2017-10-18T04:57:14.194Z,96.44
2017-10-18T04:59:41.675Z,96.72
2017-10-18T05:02:09.180Z,96.36
2017-10-18T05:04:36.660Z,95.82
2017-10-18T05:07:04.111Z,95.22
2017-10-18T05:09:31.586Z,95.52
2017-10-18T05:11:59.032Z,95.72
2017-10-18T05:14:26.512Z,95.77
2017-10-18T05:16:53.987Z,95.48
2017-10-18T05:19:21.468Z,95.36
2017-10-18T05:21:48.983Z,95.04
2017-10-18T05:24:17.402Z,94.08
2017-10-18T05:26:44.854Z,94.44
2017-10-18T05:29:12.324Z,93.06
2017-10-18T05:31:39.782Z,94.15
2017-10-18T05:34:07.235Z,93.72
2017-10-18T05:36:34.744Z,94.85
2017-10-18T05:39:02.227Z,95.18
2017-10-18T05:41:29.703Z,93.91
2017-10-18T05:43:57.177Z,94.62
2017-10-18T05:46:24.675Z,94.84
2017-10-18T05:48:52.174Z,94.78
2017-10-18T05:51:19.637Z,95.26
2017-10-18T05:53:47.077Z,95.26
2017-10-18T05:56:14.567Z,95.23
2017-10-18T05:58:42.028Z,94.67
2017-10-18T06:01:09.505Z,94.38
2017-10-18T06:03:36.965Z,95.16
2017-10-18T06:06:04.439Z,95.54
2017-10-18T06:08:31.900Z,95.76
2017-10-18T06:10:59.491Z,96.53
2017-10-18T06:13:26.975Z,95.84
2017-10-18T06:15:54.602Z,96.65
2017-10-18T06:18:22.290Z,96.81
2017-10-18T06:20:50.197Z,96.38
2017-10-18T06:23:17.862Z,96.79
2017-10-18T06:25:45.564Z,96.56
2017-10-18T06:28:14.081Z,96.02
2017-10-18T06:30:41.731Z,96.32
2017-10-18T06:33:09.379Z,96.36
2017-10-18T06:35:37.177Z,96.56
2017-10-18T06:38:04.728Z,96.55
2017-10-18T06:40:32.388Z,96.18
2017-10-18T06:43:01.216Z,95.18
2017-10-18T06:45:29.363Z,95.42
2017-10-18T06:47:57.125Z,95.99
2017-10-18T06:50:24.783Z,95.47
2017-10-18T06:52:52.551Z,95.34
2017-10-18T06:55:20.152Z,95.66
2017-10-18T06:57:48.386Z,95.48
2017-10-18T07:00:16.046Z,93.44
2017-10-18T07:02:43.686Z,93.14
2017-10-18T07:05:11.280Z,93.13
2017-10-18T07:07:39.134Z,94.09
2017-10-18T07:10:06.774Z,93.08
2017-10-18T07:12:34.661Z,93.97
2017-10-18T07:15:02.289Z,92.02
2017-10-18T07:17:30.188Z,92.17
2017-10-18T07:19:57.964Z,93.50
2017-10-18T07:22:25.547Z,92.98
2017-10-18T07:24:53.125Z,90.14
2017-10-18T07:27:24.727Z,90.62
2017-10-18T07:29:52.254Z,92.49
2017-10-18T07:32:20.154Z,94.09
2017-10-18T07:34:47.771Z,95.06
2017-10-18T07:37:16.087Z,92.31
2017-10-18T07:42:22.286Z,90.19
2017-10-18T07:44:50.257Z,91.20
2017-10-18T07:47:17.938Z,90.43
2017-10-18T07:49:45.611Z,93.34
2017-10-18T07:52:13.154Z,93.45
2017-10-18T07:54:40.639Z,92.34
2017-10-18T07:57:08.248Z,91.55
2017-10-18T07:59:35.789Z,91.28
2017-10-18T08:02:03.554Z,92.66
2017-10-18T08:04:31.025Z,93.38
2017-10-18T08:06:58.612Z,92.70
2017-10-18T08:09:26.127Z,94.05
2017-10-18T08:11:53.751Z,92.10
2017-10-18T08:14:21.299Z,94.28
2017-10-18T08:16:48.870Z,94.65
2017-10-18T08:19:16.372Z,95.62
2017-10-18T08:21:43.909Z,94.90
2017-10-18T08:24:11.479Z,95.03
2017-10-18T08:26:39.021Z,95.27
2017-10-18T08:29:06.477Z,94.55
2017-10-18T08:31:33.984Z,94.75
2017-10-18T08:34:01.471Z,93.04
2017-10-18T08:36:29.271Z,91.90
2017-10-18T08:38:57.131Z,92.71
2017-10-18T08:41:24.895Z,92.63
2017-10-18T08:43:52.772Z,93.32
2017-10-18T08:46:20.533Z,92.79
2017-10-18T08:48:48.401Z,92.84
2017-10-18T08:51:16.164Z,91.34
2017-10-18T08:53:44.031Z,90.36
2017-10-18T08:56:11.897Z,93.12
2017-10-18T08:58:39.660Z,93.17
2017-10-18T09:01:07.429Z,92.23
2017-10-18T09:03:35.886Z,90.49
2017-10-18T09:06:03.771Z,91.43
2017-10-18T09:08:31.607Z,93.06
2017-10-18T09:10:59.296Z,93.54
2017-10-18T09:13:27.164Z,94.16
2017-10-18T09:15:54.891Z,94.64
2017-10-18T09:18:22.692Z,94.48
2017-10-18T09:20:50.309Z,94.16
2017-10-18T09:23:17.944Z,94.26
2017-10-18T09:25:45.563Z,94.67
2017-10-18T09:28:13.222Z,94.26
2017-10-18T09:30:40.999Z,94.08
2017-10-18T09:33:08.761Z,94.64
2017-10-18T09:35:36.375Z,94.47
2017-10-18T09:38:04.040Z,94.88
2017-10-18T09:40:31.571Z,94.67
2017-10-18T09:43:02.376Z,93.26
2017-10-18T09:45:29.896Z,93.00
2017-10-18T09:47:57.371Z,92.68
2017-10-18T09:50:24.826Z,93.22
2017-10-18T09:52:52.370Z,92.46
2017-10-18T09:55:19.844Z,93.00
2017-10-18T09:57:47.335Z,92.83
2017-10-18T10:00:14.853Z,93.03
2017-10-18T10:02:42.307Z,93.27
2017-10-18T10:05:09.791Z,93.69
2017-10-18T10:07:37.293Z,93.82
2017-10-18T10:10:04.773Z,93.10
2017-10-18T10:12:32.217Z,92.00
2017-10-18T10:14:59.723Z,92.53
2017-10-18T10:17:27.210Z,91.68
2017-10-18T10:19:54.688Z,91.01
2017-10-18T10:22:22.151Z,91.51
2017-10-18T10:24:49.619Z,91.45
2017-10-18T10:27:17.156Z,87.54
2017-10-18T10:29:44.633Z,89.16
2017-10-18T10:32:12.083Z,88.49
2017-10-18T10:34:39.634Z,87.50
2017-10-18T10:37:07.115Z,84.66
2017-10-18T10:39:34.572Z,85.62
2017-10-18T10:42:02.052Z,84.98
2017-10-18T10:44:29.546Z,83.51
2017-10-18T10:46:57.039Z,84.31
2017-10-18T10:49:24.512Z,85.13
2017-10-18T10:51:52.011Z,86.05
2017-10-18T10:54:19.523Z,86.00
2017-10-18T10:56:46.994Z,85.68
2017-10-18T10:59:14.503Z,84.74
2017-10-18T11:01:41.995Z,84.76
2017-10-18T11:04:09.441Z,84.43
2017-10-18T11:06:36.969Z,85.01
2017-10-18T11:09:04.529Z,85.93
2017-10-18T11:11:31.997Z,85.95
2017-10-18T11:13:59.470Z,85.38
2017-10-18T11:16:27.000Z,86.20
2017-10-18T11:18:54.475Z,85.10
2017-10-18T11:21:21.932Z,84.50
2017-10-18T11:23:49.457Z,84.33
2017-10-18T11:26:16.916Z,83.27
2017-10-18T11:28:44.403Z,82.15
2017-10-18T11:31:11.854Z,80.85
2017-10-18T11:33:39.351Z,78.97
2017-10-18T11:36:06.806Z,79.25
2017-10-18T11:38:34.292Z,77.90
2017-10-18T11:41:01.779Z,79.62
2017-10-18T11:43:29.279Z,77.81
2017-10-18T11:45:56.733Z,76.96
2017-10-18T11:48:24.232Z,75.16
2017-10-18T11:50:51.717Z,76.75
2017-10-18T11:53:19.205Z,76.49
2017-10-18T11:55:46.650Z,76.20
2017-10-18T11:58:14.123Z,75.68
2017-10-18T12:00:41.584Z,75.85
2017-10-18T12:03:09.106Z,74.45
2017-10-18T12:05:36.586Z,73.34
2017-10-18T12:08:04.098Z,72.51
2017-10-18T12:10:31.662Z,73.17
2017-10-18T12:12:59.149Z,72.93
2017-10-18T12:15:26.623Z,72.69
2017-10-18T12:17:54.074Z,72.33
2017-10-18T12:20:21.595Z,72.00
2017-10-18T12:22:49.044Z,72.67
2017-10-18T12:25:16.559Z,71.46
2017-10-18T12:27:44.053Z,71.79
2017-10-18T12:30:11.627Z,70.20
2017-10-18T12:32:39.113Z,69.66
2017-10-18T12:35:06.657Z,68.77
2017-10-18T12:37:34.224Z,68.11
2017-10-18T12:40:01.700Z,68.82
2017-10-18T12:42:29.155Z,68.70
2017-10-18T12:44:56.632Z,67.57
2017-10-18T12:47:24.091Z,65.20
2017-10-18T12:49:51.564Z,64.89
2017-10-18T12:52:19.010Z,66.01
2017-10-18T12:54:46.473Z,65.52
2017-10-18T12:57:13.926Z,66.33
2017-10-18T12:59:41.392Z,66.12
2017-10-18T13:02:08.846Z,65.01
2017-10-18T13:04:36.332Z,65.63
2017-10-18T13:07:03.784Z,65.11
2017-10-18T13:09:31.259Z,65.50
2017-10-18T13:11:58.704Z,64.77
2017-10-18T13:14:26.295Z,65.56
2017-10-18T13:16:53.759Z,65.52
2017-10-18T13:19:21.252Z,65.78
2017-10-18T13:21:48.720Z,64.10
2017-10-18T13:24:16.208Z,64.20
2017-10-18T13:26:43.665Z,64.60
2017-10-18T13:29:11.133Z,64.71
2017-10-18T13:31:38.610Z,64.68
2017-10-18T13:34:06.075Z,64.09
2017-10-18T13:36:33.709Z,64.13
2017-10-18T13:39:01.165Z,64.66
2017-10-18T13:41:28.625Z,63.35
2017-10-18T13:43:56.139Z,63.82
2017-10-18T13:46:23.612Z,64.60
2017-10-18T13:48:51.151Z,64.32
2017-10-18T13:51:18.624Z,64.46
2017-10-18T13:53:46.086Z,63.05
2017-10-18T13:56:13.574Z,63.30
2017-10-18T13:58:41.031Z,63.26
2017-10-18T14:01:08.529Z,64.16
2017-10-18T14:03:35.987Z,64.34
2017-10-18T14:06:03.494Z,63.24
2017-10-18T14:08:30.951Z,61.52
2017-10-18T14:10:58.442Z,61.93
2017-10-18T14:13:25.915Z,62.56
2017-10-18T14:15:53.380Z,62.65
2017-10-18T14:18:20.929Z,62.84
2017-10-18T14:20:48.385Z,63.12
2017-10-18T14:23:15.847Z,63.41
2017-10-18T14:25:43.298Z,63.66
2017-10-18T14:28:10.764Z,65.55
2017-10-18T14:30:38.316Z,65.68
2017-10-18T14:33:05.794Z,65.86
2017-10-18T14:35:33.331Z,64.56
2017-10-18T14:38:00.827Z,63.94
2017-10-18T14:40:28.272Z,63.08
2017-10-18T14:42:55.786Z,63.47
2017-10-18T14:45:23.274Z,63.49
2017-10-18T14:47:51.073Z,63.55
2017-10-18T14:50:18.940Z,63.52
2017-10-18T14:52:46.810Z,63.24
2017-10-18T14:55:14.554Z,64.63
2017-10-18T14:57:42.049Z,64.01
2017-10-18T15:00:09.676Z,64.09
2017-10-18T15:02:37.509Z,60.60
2017-10-18T15:05:05.054Z,63.73
2017-10-18T15:07:32.504Z,63.20
2017-10-18T15:09:59.971Z,62.96
2017-10-18T15:12:27.406Z,63.44
2017-10-18T15:14:54.979Z,64.64
2017-10-18T15:17:22.456Z,65.46
2017-10-18T15:19:49.915Z,63.80
2017-10-18T15:22:17.376Z,62.26
2017-10-18T15:24:44.850Z,63.13
2017-10-18T15:27:12.302Z,65.67
2017-10-18T15:29:39.808Z,65.79
2017-10-18T15:32:07.254Z,65.23
2017-10-18T15:34:34.794Z,64.95
2017-10-18T15:37:02.248Z,66.55
2017-10-18T15:39:29.695Z,67.50
2017-10-18T15:41:57.151Z,68.94
2017-10-18T15:44:24.664Z,69.44
2017-10-18T15:46:52.134Z,70.05
2017-10-18T15:49:19.581Z,71.58
2017-10-18T15:51:47.053Z,72.01
2017-10-18T15:54:14.530Z,72.52
2017-10-18T15:56:42.053Z,73.08
2017-10-18T15:59:09.510Z,72.56
2017-10-18T16:01:36.983Z,72.64
2017-10-18T16:04:04.448Z,73.24
2017-10-18T16:06:31.977Z,73.85
2017-10-18T16:08:59.417Z,74.59
2017-10-18T16:11:26.911Z,75.54
2017-10-18T16:13:54.441Z,77.16
2017-10-18T16:16:21.923Z,77.95
2017-10-18T16:18:49.391Z,79.59
2017-10-18T16:21:16.875Z,79.93
2017-10-18T16:23:44.321Z,79.85
2017-10-18T16:26:11.838Z,80.64
2017-10-18T16:28:39.286Z,81.08
2017-10-18T16:31:06.861Z,80.54
2017-10-18T16:33:34.316Z,81.33
2017-10-18T16:36:01.806Z,81.96
2017-10-18T16:38:29.263Z,81.92
2017-10-18T16:40:56.737Z,82.01
2017-10-18T16:43:24.212Z,81.05
2017-10-18T16:45:51.707Z,80.94
2017-10-18T16:48:19.158Z,81.34
2017-10-18T16:50:46.622Z,81.99
2017-10-18T16:53:14.074Z,82.08
2017-10-18T16:55:41.558Z,81.27
2017-10-18T16:58:09.075Z,80.20
2017-10-18T17:00:36.537Z,81.73
2017-10-18T17:03:04.100Z,80.91
2017-10-18T17:05:31.586Z,81.59
2017-10-18T17:07:59.034Z,81.02
2017-10-18T17:10:26.484Z,81.25
2017-10-18T17:12:54.020Z,81.60
2017-10-18T17:15:21.499Z,81.45
2017-10-18T17:17:49.028Z,79.54
2017-10-18T17:20:16.470Z,80.26
2017-10-18T17:22:43.974Z,80.56
2017-10-18T17:25:11.423Z,81.86
2017-10-18T17:27:38.899Z,81.02
2017-10-18T17:30:06.426Z,81.74
2017-10-18T17:32:33.907Z,81.64
2017-10-18T17:35:01.350Z,81.40
2017-10-18T17:37:28.852Z,81.47
2017-10-18T17:39:56.296Z,81.66
2017-10-18T17:42:23.761Z,82.12
2017-10-18T17:44:51.216Z,82.59
2017-10-18T17:47:18.691Z,82.56
2017-10-18T17:49:46.180Z,82.69
2017-10-18T17:52:13.637Z,83.27
2017-10-18T17:54:41.112Z,83.70
2017-10-18T17:57:08.587Z,83.19
2017-10-18T17:59:36.065Z,83.07
2017-10-18T18:02:03.529Z,83.36
2017-10-18T18:04:31.006Z,83.75
2017-10-18T18:06:58.581Z,83.86
2017-10-18T18:09:26.034Z,84.00
2017-10-18T18:11:53.503Z,84.11
2017-10-18T18:14:20.946Z,84.62
2017-10-18T18:16:48.434Z,85.06
2017-10-18T18:19:15.974Z,85.17
2017-10-18T18:21:43.456Z,84.92
2017-10-18T18:24:11.030Z,84.79
2017-10-18T18:26:38.548Z,84.69
2017-10-18T18:29:06.006Z,84.67
2017-10-18T18:31:33.548Z,84.57
2017-10-18T18:34:01.113Z,84.86
2017-10-18T18:36:28.672Z,85.47
2017-10-18T18:38:56.274Z,85.56
2017-10-18T18:41:23.722Z,85.71
2017-10-18T18:43:51.203Z,85.70
2017-10-18T18:46:18.664Z,85.24
2017-10-18T18:48:46.147Z,85.16
2017-10-18T18:51:13.622Z,86.11
2017-10-18T18:53:41.414Z,86.17
2017-10-18T18:56:08.873Z,86.00
2017-10-18T18:58:36.351Z,86.28
2017-10-18T19:01:03.806Z,85.61
2017-10-18T19:03:31.288Z,85.40
2017-10-18T19:05:58.752Z,84.92
2017-10-18T19:08:26.236Z,85.39
2017-10-18T19:10:53.687Z,85.65
2017-10-18T19:13:21.157Z,85.93
2017-10-18T19:15:48.618Z,86.73
2017-10-18T19:18:16.143Z,87.80
2017-10-18T19:20:43.704Z,87.19
2017-10-18T19:23:11.194Z,86.97
2017-10-18T19:25:38.646Z,87.08
2017-10-18T19:28:06.117Z,86.77
2017-10-18T19:30:33.573Z,86.85
2017-10-18T19:33:01.072Z,87.02
2017-10-18T19:35:28.538Z,86.72
2017-10-18T19:37:56.027Z,86.90
2017-10-18T19:40:23.561Z,86.82
2017-10-18T19:42:51.060Z,86.80
2017-10-18T19:45:18.516Z,86.63
2017-10-18T19:47:45.995Z,86.70
2017-10-18T19:50:13.489Z,86.32
2017-10-18T19:52:41.147Z,86.14
2017-10-18T19:55:08.632Z,86.77
2017-10-18T19:57:36.094Z,86.86
2017-10-18T20:00:03.563Z,86.83
2017-10-18T20:02:31.074Z,86.60
2017-10-18T20:04:58.537Z,86.02
2017-10-18T20:07:26.082Z,86.29
2017-10-18T20:09:53.699Z,84.37
2017-10-18T20:12:21.141Z,85.97
2017-10-18T20:14:48.616Z,86.06
2017-10-18T20:17:16.066Z,86.35
2017-10-18T20:19:43.589Z,86.35
2017-10-18T20:22:11.042Z,86.71
2017-10-18T20:24:38.600Z,86.68
2017-10-18T20:27:06.056Z,86.04
2017-10-18T20:29:33.540Z,86.20
2017-10-18T20:32:00.982Z,86.70
2017-10-18T20:34:28.471Z,87.00
2017-10-18T20:36:55.919Z,87.19
2017-10-18T20:39:23.440Z,87.15
2017-10-18T20:41:50.896Z,87.10
2017-10-18T20:44:18.509Z,87.00
2017-10-18T20:46:46.021Z,86.46
2017-10-18T20:49:13.486Z,86.15
2017-10-18T20:51:40.939Z,86.38
2017-10-18T20:54:08.447Z,87.17
2017-10-18T20:56:35.898Z,87.36
2017-10-18T20:59:03.508Z,87.40
2017-10-18T21:01:31.066Z,86.85
2017-10-18T21:03:58.553Z,87.39
2017-10-18T21:06:26.079Z,87.53
2017-10-18T21:08:53.611Z,86.96
2017-10-18T21:11:21.073Z,87.77
2017-10-18T21:13:48.557Z,88.04
2017-10-18T21:16:16.039Z,87.50
2017-10-18T21:18:43.485Z,87.47
2017-10-18T21:21:11.016Z,87.10
2017-10-18T21:23:38.477Z,86.42
2017-10-18T21:26:05.972Z,86.79
2017-10-18T21:28:33.451Z,87.04
2017-10-18T21:31:00.935Z,86.79
2017-10-18T21:33:28.388Z,86.63
2017-10-18T21:35:56.738Z,87.01
2017-10-18T21:38:24.182Z,88.78
2017-10-18T21:40:51.651Z,88.32
2017-10-18T21:43:19.409Z,88.68
2017-10-18T21:45:46.924Z,89.22
2017-10-18T21:48:14.402Z,89.28
2017-10-18T21:50:41.940Z,89.45
2017-10-18T21:53:09.473Z,88.34
2017-10-18T21:55:36.944Z,88.36
2017-10-18T21:58:04.405Z,88.18
2017-10-18T22:00:31.889Z,88.36
2017-10-18T22:02:59.344Z,88.21
2017-10-18T22:05:26.845Z,87.88
2017-10-18T22:07:54.301Z,88.05
2017-10-18T22:10:21.770Z,88.81
2017-10-18T22:12:49.243Z,88.56
2017-10-18T22:15:16.727Z,88.91
2017-10-18T22:17:44.212Z,88.58
2017-10-18T22:20:11.683Z,88.46
2017-10-18T22:22:39.132Z,87.08
2017-10-18T22:25:06.635Z,87.58
2017-10-18T22:27:34.191Z,87.64
2017-10-18T22:30:01.748Z,88.35
2017-10-18T22:32:30.807Z,88.05
2017-10-18T22:34:58.300Z,87.31
2017-10-18T22:37:25.759Z,87.20
2017-10-18T22:39:53.208Z,87.14
2017-10-18T22:42:20.680Z,87.19
2017-10-18T22:44:48.122Z,88.05
2017-10-18T22:47:15.582Z,87.97
2017-10-18T22:49:43.136Z,88.06
2017-10-18T22:52:10.692Z,87.08
2017-10-18T22:54:38.134Z,86.71
2017-10-18T22:57:05.594Z,86.98
2017-10-18T22:59:33.067Z,86.92
2017-10-18T23:02:00.543Z,87.83
2017-10-18T23:04:27.996Z,88.05
2017-10-18T23:06:55.526Z,89.12
2017-10-18T23:09:22.977Z,88.50
2017-10-18T23:11:50.467Z,87.44
2017-10-18T23:14:18.008Z,87.78
2017-10-18T23:16:45.474Z,87.40
2017-10-18T23:19:13.010Z,87.14
2017-10-18T23:21:40.495Z,87.30
2017-10-18T23:24:07.976Z,87.96
2017-10-18T23:26:35.491Z,88.21
2017-10-18T23:29:02.935Z,87.85
2017-10-18T23:31:30.404Z,87.48
2017-10-18T23:33:57.842Z,87.90
2017-10-18T23:36:25.444Z,88.75
2017-10-18T23:38:52.885Z,88.82
2017-10-18T23:41:20.359Z,88.60
2017-10-18T23:43:47.830Z,88.26
2017-10-18T23:46:15.300Z,88.93
2017-10-18T23:48:42.773Z,88.63
2017-10-18T23:51:10.252Z,87.94
2017-10-18T23:53:37.698Z,87.73
2017-10-18T23:56:05.180Z,87.84
2017-10-18T23:58:32.634Z,87.90
